Washington, DC (20529)

6:41 PM EDT on September 21, 2014 (GMT -0400)
Logan Circle | Change Station
CLOSE
Current Station
Personal Weather Station
Location: Washington, DC
Elevation: 108 ft
Nearby Weather Stations

Elev 108 ft 38.91 °N, 77.03 °W | Updated 17 seconds ago

Partly Cloudy
Partly Cloudy
81.9 °F
Feels Like 83 °F
N
2.0
Wind Variable Wind from South
Gusts 4.9 mph

Today
High -- | Low -- °F
--% Chance of Precip.
Yesterday
High -- | Low -- °F
Precip. -- in
6:54 AM 7:06 PM
Waning Crescent, 5% visible
Pressure 29.65 in
Visibility 10.0 miles
Clouds Few 6000 ft
Scattered Clouds 15000 ft
Scattered Clouds 25000 ft
Heat Index 83 °F
Dew Point 62 °F
Humidity 51%
Rainfall 0.00 in
Snow Depth Not available.
UV 1 out of 12
Pollen 4.00 out of 12
Air Quality Not available.
Flu Activity Not available.
METAR KDCA 212152Z 18010KT 10SM FEW060 SCT150 SCT250 29/15 A2965 RMK AO2 SLP041 CB DSNT NW MOV E T02940150

More Conditions Fewer Conditions

Pressure 29.65 in
Visibility 10.0 miles
Clouds Few 6000 ft
Scattered Clouds 15000 ft
Scattered Clouds 25000 ft
Heat Index 83 °F
Dew Point 62 °F
Humidity 51%
Rainfall 0.00 in
Snow Depth Not available.
UV 1 out of 12
Pollen 4.00 out of 12
Air Quality Not available.
Flu Activity Not available.
METAR KDCA 212152Z 18010KT 10SM FEW060 SCT150 SCT250 29/15 A2965 RMK AO2 SLP041 CB DSNT NW MOV E T02940150

More Conditions Fewer Conditions

10-Day Weather Forecast

Almanac

Astronomy

Sep. 21, 2014 Rise Set
Actual Time 6:54 AM EDT 7:06 PM EDT
Civil Twilight 6:28 AM EDT 7:33 PM EDT
Nautical Twilight 5:57 AM EDT 8:04 PM EDT
Astronomical Twilight 5:25 AM EDT 8:36 PM EDT
Moon 4:27 AM EDT 5:41 PM EDT
Length of Visible Light 13h 05m
Length of Day
12h 11m
Tomorrow will be 2m 30s shorter.
Waning Crescent, 5% of the Moon is Illuminated
Today
Waning Crescent
Sep 24
New
Oct 1
First Quarter
Oct 8
Full
Oct 15
Last Quarter

Today's Extremes

State Highs State Lows

Community

WunderPhotos

Upload Photos

1,755,280 photos uploaded!

WunderBlogs® & News

Nearby

Snow Depth

Station Depth Elevation
No new snow has been reported.

Earthquake Activity

City Distance Mag. Time & Date
No recent earthquake activity has been reported nearby.
Minimum magnitude displayed is 2.5.

Coastal Water Temperatures

Place Temperature
Washington, DC 75.0 °F
Baltimore, MD 75.9 °F
Solomons Island, MD 75.9 °F

Nearby Weather Stations